createdAt,value
2022-09-21T00:00:44.719Z,7.09
2022-09-21T00:02:47.340Z,7.01
2022-09-21T00:04:50.965Z,7.01
2022-09-21T00:06:53.584Z,7.06
2022-09-21T00:08:58.011Z,7.14
2022-09-21T00:11:00.886Z,7.01
2022-09-21T00:13:05.147Z,6.98
2022-09-21T00:15:10.170Z,6.99
2022-09-21T00:17:12.788Z,7.07
2022-09-21T00:19:16.812Z,6.99
2022-09-21T00:21:19.563Z,7.09
2022-09-21T00:23:23.727Z,7.05
2022-09-21T00:25:27.856Z,7.08
2022-09-21T00:27:31.132Z,7.12
2022-09-21T00:29:33.894Z,7.11
2022-09-21T00:31:36.513Z,6.84
2022-09-21T00:33:39.749Z,6.78
2022-09-21T00:35:42.338Z,6.71
2022-09-21T00:37:44.901Z,6.73
2022-09-21T00:39:47.686Z,6.76
2022-09-21T00:41:53.538Z,6.76
2022-09-21T00:44:24.402Z,6.74
2022-09-21T00:46:30.911Z,6.74
2022-09-21T00:48:34.522Z,6.83
2022-09-21T00:50:43.676Z,6.76
2022-09-21T00:52:50.037Z,6.84
2022-09-21T00:54:55.572Z,6.67
2022-09-21T00:57:01.669Z,6.89
2022-09-21T00:59:05.405Z,6.58
2022-09-21T01:01:08.247Z,6.63
2022-09-21T01:03:12.956Z,6.53
2022-09-21T01:05:15.531Z,6.48
2022-09-21T01:07:20.804Z,6.46
2022-09-21T01:09:23.871Z,6.33
2022-09-21T01:11:35.327Z,6.31
2022-09-21T01:13:48.110Z,6.35
2022-09-21T01:15:58.746Z,6.30
2022-09-21T01:18:11.348Z,6.42
2022-09-21T01:20:55.047Z,6.51
2022-09-21T01:23:23.443Z,6.43
2022-09-21T01:25:35.977Z,6.51
2022-09-21T01:27:58.544Z,6.49
2022-09-21T01:30:05.549Z,6.61
2022-09-21T01:32:12.611Z,6.60
2022-09-21T01:34:21.032Z,6.60
2022-09-21T01:36:28.195Z,6.55
2022-09-21T01:38:37.236Z,6.57
2022-09-21T01:40:43.206Z,6.49
2022-09-21T01:42:49.343Z,6.49
2022-09-21T01:44:52.046Z,6.32
2022-09-21T01:46:58.318Z,6.25
2022-09-21T01:49:07.156Z,6.39
2022-09-21T01:51:12.644Z,6.13
2022-09-21T01:53:21.823Z,6.18
2022-09-21T01:55:28.715Z,6.25
2022-09-21T01:57:33.414Z,6.39
2022-09-21T01:59:40.248Z,6.35
2022-09-21T02:01:47.606Z,6.14
2022-09-21T02:03:55.334Z,6.21
2022-09-21T02:05:59.369Z,6.21
2022-09-21T02:08:02.524Z,6.25
2022-09-21T02:10:08.433Z,6.09
2022-09-21T02:12:11.802Z,6.18
2022-09-21T02:14:18.343Z,6.31
2022-09-21T02:16:34.922Z,6.20
2022-09-21T02:18:48.596Z,6.05
2022-09-21T02:20:58.602Z,6.19
2022-09-21T02:23:09.863Z,6.08
2022-09-21T02:25:16.595Z,6.21
2022-09-21T02:27:30.188Z,5.96
2022-09-21T02:29:42.484Z,5.96
2022-09-21T02:31:49.931Z,6.09
2022-09-21T02:34:00.137Z,6.23
2022-09-21T02:36:11.179Z,6.08
2022-09-21T02:38:22.651Z,6.03
2022-09-21T02:40:30.341Z,6.00
2022-09-21T02:42:39.142Z,6.05
2022-09-21T02:44:47.323Z,5.95
2022-09-21T02:46:54.997Z,5.94
2022-09-21T02:49:01.763Z,6.15
2022-09-21T02:51:11.137Z,6.01
2022-09-21T02:53:17.924Z,5.97
2022-09-21T02:55:20.519Z,5.94
2022-09-21T02:57:24.555Z,5.99
2022-09-21T02:59:28.175Z,5.92
2022-09-21T03:01:32.821Z,5.84
2022-09-21T03:03:35.739Z,5.86
2022-09-21T03:05:38.312Z,5.95
2022-09-21T03:07:42.880Z,5.94
2022-09-21T03:09:45.736Z,5.79
2022-09-21T03:11:48.907Z,5.87
2022-09-21T03:13:51.475Z,5.84
2022-09-21T03:16:00.863Z,5.84
2022-09-21T03:18:04.957Z,5.87
2022-09-21T03:20:08.320Z,5.77
2022-09-21T03:22:10.963Z,5.74
2022-09-21T03:24:34.855Z,5.76
2022-09-21T03:26:37.599Z,5.74
2022-09-21T03:28:40.544Z,5.61
2022-09-21T03:30:43.525Z,5.65
2022-09-21T03:32:46.150Z,5.77
2022-09-21T03:34:48.742Z,5.70
2022-09-21T03:36:51.352Z,5.65
2022-09-21T03:38:54.183Z,5.73
2022-09-21T03:40:58.226Z,5.67
2022-09-21T03:43:01.118Z,5.56
2022-09-21T03:45:03.728Z,5.62
2022-09-21T03:47:07.475Z,5.49
2022-09-21T03:49:10.039Z,5.64
2022-09-21T03:51:12.653Z,5.71
2022-09-21T03:53:15.972Z,5.67
2022-09-21T03:55:18.691Z,5.50
2022-09-21T03:57:22.728Z,5.45
2022-09-21T03:59:25.415Z,5.58
2022-09-21T04:01:28.053Z,5.62
2022-09-21T04:03:31.055Z,5.50
2022-09-21T04:05:33.766Z,5.44
2022-09-21T04:07:36.767Z,5.58
2022-09-21T04:09:39.373Z,5.58
2022-09-21T04:11:41.959Z,5.65
2022-09-21T04:13:51.171Z,5.51
2022-09-21T04:15:53.748Z,5.70
2022-09-21T04:17:56.569Z,5.80
2022-09-21T04:19:59.163Z,5.62
2022-09-21T04:22:01.742Z,5.67
2022-09-21T04:24:05.115Z,5.63
2022-09-21T04:26:07.678Z,5.58
2022-09-21T04:28:10.258Z,5.59
2022-09-21T04:30:16.212Z,5.51
2022-09-21T04:32:19.225Z,5.41
2022-09-21T04:34:22.047Z,5.37
2022-09-21T04:36:26.568Z,5.48
2022-09-21T04:38:29.136Z,5.35
2022-09-21T04:40:32.029Z,5.28
2022-09-21T04:42:34.676Z,5.41
2022-09-21T04:44:37.559Z,5.36
2022-09-21T04:46:42.374Z,5.31
2022-09-21T04:48:46.160Z,5.24
2022-09-21T04:50:50.037Z,5.22
2022-09-21T04:52:52.623Z,5.16
2022-09-21T04:54:56.403Z,5.28
2022-09-21T04:56:59.042Z,5.37
2022-09-21T04:59:01.656Z,5.23
2022-09-21T05:01:06.199Z,5.19
2022-09-21T05:03:10.348Z,5.13
2022-09-21T05:05:13.287Z,5.20
2022-09-21T05:07:15.860Z,5.22
2022-09-21T05:09:36.174Z,5.10
2022-09-21T05:11:38.983Z,4.99
2022-09-21T05:13:41.690Z,5.07
2022-09-21T05:15:44.296Z,5.05
2022-09-21T05:17:47.000Z,5.16
2022-09-21T05:19:51.395Z,5.14
2022-09-21T05:21:54.005Z,5.22
2022-09-21T05:23:57.357Z,5.33
2022-09-21T05:26:01.118Z,5.34
2022-09-21T05:28:04.355Z,5.32
2022-09-21T05:30:08.460Z,5.41
2022-09-21T05:32:18.196Z,5.34
2022-09-21T05:34:34.324Z,5.22
2022-09-21T05:36:48.774Z,5.22
2022-09-21T05:38:52.002Z,5.14
2022-09-21T05:40:55.195Z,5.22
2022-09-21T05:42:58.349Z,5.24
2022-09-21T05:45:01.432Z,5.28
2022-09-21T05:47:14.068Z,5.31
2022-09-21T05:49:21.508Z,5.33
2022-09-21T05:51:34.387Z,5.40
2022-09-21T05:53:51.609Z,5.44
2022-09-21T05:55:58.054Z,5.32
2022-09-21T05:58:09.964Z,5.35
2022-09-21T06:00:18.828Z,5.44
2022-09-21T06:02:32.960Z,5.49
2022-09-21T06:04:36.238Z,5.52
2022-09-21T06:06:38.880Z,5.61
2022-09-21T06:08:42.858Z,5.89
2022-09-21T06:10:45.591Z,5.75
2022-09-21T06:12:48.231Z,5.65
2022-09-21T06:14:50.848Z,5.85
2022-09-21T06:16:54.191Z,5.94
2022-09-21T06:18:56.875Z,6.03
2022-09-21T06:20:59.523Z,5.95
2022-09-21T06:23:02.568Z,5.93
2022-09-21T06:25:07.817Z,5.92
2022-09-21T06:27:10.448Z,6.22
2022-09-21T06:29:13.056Z,6.10
2022-09-21T06:31:15.615Z,6.48
2022-09-21T06:33:21.139Z,6.29
2022-09-21T06:35:23.764Z,6.57
2022-09-21T06:37:26.368Z,6.29
2022-09-21T06:39:28.973Z,6.63
2022-09-21T06:41:34.425Z,6.53
2022-09-21T06:43:37.202Z,6.47
2022-09-21T06:45:40.023Z,6.64
2022-09-21T06:47:47.820Z,6.62
2022-09-21T06:49:50.417Z,6.72
2022-09-21T06:51:53.042Z,6.83
2022-09-21T06:53:56.953Z,7.08
2022-09-21T06:56:03.770Z,7.38
2022-09-21T06:58:07.721Z,7.40
2022-09-21T07:00:13.034Z,7.46
2022-09-21T07:02:15.996Z,7.63
2022-09-21T07:04:21.974Z,7.91
2022-09-21T07:06:29.334Z,8.24
2022-09-21T07:10:58.396Z,9.10
2022-09-21T07:13:03.981Z,9.16
2022-09-21T07:15:10.244Z,9.20
2022-09-21T07:17:15.713Z,9.36
2022-09-21T07:19:19.119Z,9.72
2022-09-21T07:21:22.202Z,9.91
2022-09-21T07:23:24.857Z,9.99
2022-09-21T07:25:27.525Z,9.43
2022-09-21T07:27:31.450Z,9.62
2022-09-21T07:29:34.130Z,9.74
2022-09-21T07:31:38.548Z,9.34
2022-09-21T07:33:42.317Z,9.61
2022-09-21T07:35:52.069Z,10.13
2022-09-21T07:37:56.447Z,9.60
2022-09-21T07:39:59.143Z,10.69
2022-09-21T07:42:01.960Z,10.52
2022-09-21T07:44:04.889Z,10.37
2022-09-21T07:46:08.012Z,10.13
2022-09-21T07:48:12.011Z,10.28
2022-09-21T07:50:14.696Z,11.00
2022-09-21T07:52:18.360Z,10.94
2022-09-21T07:54:21.022Z,11.45
2022-09-21T07:56:24.602Z,11.04
2022-09-21T07:58:44.877Z,11.70
2022-09-21T08:00:47.582Z,13.45
2022-09-21T08:02:50.326Z,12.86
2022-09-21T08:04:54.837Z,12.25
2022-09-21T08:06:57.430Z,13.04
2022-09-21T08:09:00.241Z,12.66
2022-09-21T08:11:07.334Z,12.80
2022-09-21T08:13:09.953Z,12.32
2022-09-21T08:15:37.062Z,11.46
2022-09-21T08:17:39.382Z,11.66
2022-09-21T08:19:42.011Z,12.25
2022-09-21T08:21:47.035Z,12.11
2022-09-21T08:23:50.158Z,12.07
2022-09-21T08:25:53.196Z,12.49
2022-09-21T08:28:00.462Z,11.99
2022-09-21T08:30:03.623Z,11.83
2022-09-21T08:32:06.694Z,12.00
2022-09-21T08:34:09.367Z,11.99
2022-09-21T08:36:12.153Z,11.79
2022-09-21T08:38:16.241Z,12.70
2022-09-21T08:40:20.375Z,12.67
2022-09-21T08:42:45.486Z,14.29
2022-09-21T08:44:55.208Z,14.15
2022-09-21T08:47:06.032Z,14.13
2022-09-21T08:49:14.320Z,12.96
2022-09-21T08:51:23.179Z,14.34
2022-09-21T08:53:33.459Z,13.78
2022-09-21T08:55:36.139Z,14.86
2022-09-21T08:57:38.784Z,16.50
2022-09-21T08:59:44.141Z,15.60
2022-09-21T09:01:58.356Z,16.48
2022-09-21T09:04:16.151Z,17.43
2022-09-21T09:06:28.380Z,16.63
2022-09-21T09:09:05.460Z,18.34
2022-09-21T09:11:21.024Z,17.52
2022-09-21T09:13:52.600Z,15.89
2022-09-21T09:16:07.109Z,17.43
2022-09-21T09:18:16.663Z,17.65
2022-09-21T09:20:22.811Z,17.66
2022-09-21T09:22:30.932Z,16.92
2022-09-21T09:24:42.713Z,16.70
2022-09-21T09:26:49.981Z,18.32
2022-09-21T09:28:56.355Z,16.66
2022-09-21T09:31:02.425Z,18.60
2022-09-21T09:33:12.748Z,16.64
2022-09-21T09:35:23.786Z,17.59
2022-09-21T09:37:33.117Z,18.39
2022-09-21T09:39:37.324Z,15.14
2022-09-21T09:41:52.599Z,17.30
2022-09-21T09:44:08.947Z,17.64
2022-09-21T09:46:19.184Z,17.94
2022-09-21T09:48:41.219Z,17.45
2022-09-21T09:50:44.128Z,16.77
2022-09-21T09:52:47.954Z,18.17
2022-09-21T09:54:51.881Z,19.79
2022-09-21T09:56:55.269Z,19.86
2022-09-21T09:59:00.164Z,18.00
2022-09-21T10:01:02.726Z,16.70
2022-09-21T10:03:18.001Z,15.96
2022-09-21T10:05:24.205Z,14.83
2022-09-21T10:07:38.704Z,14.47
2022-09-21T10:09:41.491Z,13.86
2022-09-21T10:11:45.492Z,15.21
2022-09-21T10:13:50.296Z,14.23
2022-09-21T10:15:56.959Z,14.32
2022-09-21T10:18:05.440Z,13.87
2022-09-21T10:20:17.088Z,13.44
2022-09-21T10:22:21.588Z,13.44
2022-09-21T10:24:26.554Z,13.37
2022-09-21T10:26:33.433Z,13.96
2022-09-21T10:28:38.128Z,13.31
2022-09-21T10:30:41.321Z,13.26
2022-09-21T10:32:56.723Z,13.17
2022-09-21T10:35:14.863Z,13.53
2022-09-21T10:37:28.145Z,13.11
2022-09-21T10:39:31.805Z,12.97
2022-09-21T10:41:34.529Z,13.03
2022-09-21T10:43:44.481Z,13.20
2022-09-21T10:45:54.906Z,13.02
2022-09-21T10:47:59.841Z,13.68
2022-09-21T10:50:05.250Z,14.20
2022-09-21T10:52:08.344Z,14.77
2022-09-21T10:54:11.226Z,14.39
2022-09-21T10:56:19.684Z,15.09
2022-09-21T10:58:22.417Z,14.43
2022-09-21T11:00:35.903Z,14.90
2022-09-21T11:02:39.476Z,14.82
2022-09-21T11:04:47.131Z,14.32
2022-09-21T11:06:53.638Z,14.36
2022-09-21T11:09:00.367Z,14.28
2022-09-21T11:11:14.866Z,14.22
2022-09-21T11:13:26.195Z,14.34
2022-09-21T11:15:43.257Z,14.13
2022-09-21T11:17:53.445Z,13.98
2022-09-21T11:20:05.115Z,14.29
2022-09-21T11:22:13.922Z,14.80
2022-09-21T11:24:24.406Z,14.89
2022-09-21T11:26:33.786Z,14.46
2022-09-21T11:28:41.713Z,14.57
2022-09-21T11:31:00.093Z,14.56
2022-09-21T11:33:10.690Z,14.75
2022-09-21T11:35:36.572Z,15.49
2022-09-21T11:38:05.223Z,15.62
2022-09-21T11:40:22.464Z,15.68
2022-09-21T11:42:41.846Z,15.47
2022-09-21T11:44:52.991Z,15.54
2022-09-21T11:47:03.483Z,15.31
2022-09-21T11:49:22.456Z,15.28
2022-09-21T11:51:38.620Z,15.07
2022-09-21T11:53:57.460Z,15.58
2022-09-21T11:56:25.164Z,15.60
2022-09-21T11:58:34.360Z,15.62
2022-09-21T12:00:48.193Z,15.72
2022-09-21T12:03:23.755Z,15.82
2022-09-21T12:05:33.925Z,15.48
2022-09-21T12:07:50.319Z,16.04
2022-09-21T12:10:11.614Z,15.77
2022-09-21T12:12:19.121Z,16.34
2022-09-21T12:14:29.418Z,16.43
2022-09-21T12:16:40.088Z,15.54
2022-09-21T12:18:52.312Z,15.38
2022-09-21T12:21:02.476Z,15.87
2022-09-21T12:23:11.702Z,15.52
2022-09-21T12:25:18.309Z,15.83
2022-09-21T12:27:27.912Z,16.08
2022-09-21T12:29:38.049Z,15.97
2022-09-21T12:31:48.214Z,16.68
2022-09-21T12:33:57.958Z,16.19
2022-09-21T12:36:08.709Z,16.76
2022-09-21T12:38:16.386Z,16.62
2022-09-21T12:40:27.737Z,16.86
2022-09-21T12:42:37.348Z,16.30
2022-09-21T12:44:52.890Z,16.64
2022-09-21T12:47:09.153Z,15.97
2022-09-21T12:49:25.171Z,15.52
2022-09-21T12:51:34.501Z,16.54
2022-09-21T12:53:40.080Z,16.72
2022-09-21T12:55:50.147Z,16.76
2022-09-21T12:58:14.532Z,16.93
2022-09-21T13:00:20.535Z,16.79
2022-09-21T13:02:33.264Z,16.59
2022-09-21T13:04:46.894Z,16.34
2022-09-21T13:07:09.245Z,16.28
2022-09-21T13:09:14.995Z,15.84
2022-09-21T13:11:21.343Z,16.39
2022-09-21T13:13:29.234Z,15.95
2022-09-21T13:15:34.122Z,16.84
2022-09-21T13:17:36.900Z,16.78
2022-09-21T13:19:41.418Z,17.29
2022-09-21T13:21:44.428Z,17.02
2022-09-21T13:23:56.036Z,16.98
2022-09-21T13:26:05.318Z,16.83
2022-09-21T13:28:20.068Z,17.28
2022-09-21T13:30:32.465Z,17.23
2022-09-21T13:32:51.693Z,16.57
2022-09-21T13:35:33.982Z,17.03
2022-09-21T13:37:36.599Z,16.33
2022-09-21T13:39:44.580Z,16.36
2022-09-21T13:42:03.993Z,17.32
2022-09-21T13:44:21.020Z,16.91
2022-09-21T13:46:55.772Z,16.80
2022-09-21T13:48:58.734Z,17.12
2022-09-21T13:51:09.997Z,17.34
2022-09-21T13:53:20.970Z,16.54
2022-09-21T13:55:30.461Z,16.51
2022-09-21T13:57:39.071Z,16.26
2022-09-21T13:59:43.639Z,16.39
2022-09-21T14:01:47.678Z,15.46
2022-09-21T14:03:54.605Z,15.94
2022-09-21T14:06:02.010Z,15.62
2022-09-21T14:08:18.431Z,15.26
2022-09-21T14:10:23.454Z,15.02
2022-09-21T14:12:29.536Z,14.89
2022-09-21T14:14:35.022Z,14.76
2022-09-21T14:16:55.696Z,14.90
2022-09-21T14:18:58.373Z,14.79
2022-09-21T14:21:16.992Z,14.70
2022-09-21T14:23:30.021Z,14.57
2022-09-21T14:26:01.893Z,14.55
2022-09-21T14:28:11.929Z,14.86
2022-09-21T14:30:20.696Z,14.79
2022-09-21T14:32:26.309Z,14.57
2022-09-21T14:34:35.786Z,14.63
2022-09-21T14:36:42.919Z,14.66
2022-09-21T14:38:53.537Z,14.85
2022-09-21T14:41:00.644Z,15.13
2022-09-21T14:43:09.665Z,14.93
2022-09-21T14:45:18.063Z,15.12
2022-09-21T14:47:34.182Z,15.27
2022-09-21T14:49:52.976Z,15.33
2022-09-21T14:52:12.903Z,15.44
2022-09-21T14:54:34.939Z,15.32
2022-09-21T14:57:01.095Z,15.12
2022-09-21T14:59:33.670Z,15.30
2022-09-21T15:01:38.619Z,15.37
2022-09-21T15:03:58.487Z,15.27
2022-09-21T15:06:30.916Z,15.18
2022-09-21T15:09:09.690Z,15.08
2022-09-21T15:11:21.711Z,14.99
2022-09-21T15:13:48.726Z,14.85
2022-09-21T15:16:07.104Z,15.10
2022-09-21T15:18:20.380Z,15.01
2022-09-21T15:20:24.297Z,14.95
2022-09-21T15:22:27.544Z,14.95
2022-09-21T15:24:32.595Z,15.01
2022-09-21T15:26:37.720Z,15.05
2022-09-21T15:29:08.497Z,15.01
2022-09-21T15:31:11.930Z,14.93
2022-09-21T15:33:14.884Z,14.80
2022-09-21T15:35:21.392Z,14.83
2022-09-21T15:37:24.014Z,14.69
2022-09-21T15:39:28.777Z,14.65
2022-09-21T15:41:44.811Z,14.72
2022-09-21T15:43:51.360Z,14.70
2022-09-21T15:45:58.036Z,14.59
2022-09-21T15:48:00.854Z,14.73
2022-09-21T15:50:03.986Z,14.57
2022-09-21T15:52:19.405Z,14.58
2022-09-21T15:54:33.669Z,14.48
2022-09-21T15:56:40.443Z,14.58
2022-09-21T15:58:45.830Z,14.69
2022-09-21T16:00:54.952Z,14.43
2022-09-21T16:03:05.221Z,14.34
2022-09-21T16:05:13.986Z,14.42
2022-09-21T16:07:26.787Z,14.53
2022-09-21T16:09:39.108Z,14.61
2022-09-21T16:11:42.460Z,14.65
2022-09-21T16:14:04.868Z,14.47
2022-09-21T16:16:09.696Z,14.37
2022-09-21T16:18:32.169Z,14.16
2022-09-21T16:20:47.360Z,14.28
2022-09-21T16:22:52.463Z,14.25
2022-09-21T16:24:56.923Z,14.14
2022-09-21T16:27:02.022Z,14.19
2022-09-21T16:29:23.424Z,13.96
2022-09-21T16:31:31.860Z,14.05
2022-09-21T16:33:44.014Z,13.90
2022-09-21T16:35:47.007Z,14.01
2022-09-21T16:37:50.051Z,13.90
2022-09-21T16:39:53.888Z,13.87
2022-09-21T16:41:59.949Z,13.80
2022-09-21T16:44:03.244Z,13.70
2022-09-21T16:46:08.154Z,13.78
2022-09-21T16:48:13.832Z,13.70
2022-09-21T16:50:20.334Z,13.50
2022-09-21T16:52:23.065Z,13.62
2022-09-21T16:54:27.135Z,13.46
2022-09-21T16:56:30.007Z,13.56
2022-09-21T16:58:32.748Z,13.41
2022-09-21T17:00:41.072Z,13.43
2022-09-21T17:02:45.268Z,13.25
2022-09-21T17:04:48.859Z,13.10
2022-09-21T17:06:52.318Z,13.11
2022-09-21T17:08:54.964Z,13.21
2022-09-21T17:10:57.909Z,13.17
2022-09-21T17:13:00.623Z,13.04
2022-09-21T17:15:04.143Z,12.97
2022-09-21T17:17:14.112Z,13.00
2022-09-21T17:19:19.331Z,12.76
2022-09-21T17:21:21.948Z,12.80
2022-09-21T17:23:29.074Z,12.71
2022-09-21T17:25:32.775Z,12.71
2022-09-21T17:27:36.706Z,12.51
2022-09-21T17:29:47.133Z,12.50
2022-09-21T17:31:53.523Z,12.33
2022-09-21T17:33:57.065Z,12.33
2022-09-21T17:36:02.271Z,12.20
2022-09-21T17:38:04.912Z,12.08
2022-09-21T17:40:11.157Z,12.02
2022-09-21T17:42:18.954Z,11.86
2022-09-21T17:44:46.398Z,11.90
2022-09-21T17:46:58.204Z,11.89
2022-09-21T17:49:01.275Z,11.77
2022-09-21T17:51:06.123Z,11.92
2022-09-21T17:53:28.213Z,11.76
2022-09-21T17:55:31.959Z,11.82
2022-09-21T17:57:44.813Z,11.73
2022-09-21T17:59:54.681Z,11.68
2022-09-21T18:02:00.034Z,11.65
2022-09-21T18:04:03.474Z,11.69
2022-09-21T18:06:09.059Z,11.55
2022-09-21T18:08:12.121Z,11.41
2022-09-21T18:10:15.831Z,11.32
2022-09-21T18:12:48.712Z,11.11
2022-09-21T18:14:57.051Z,11.02
2022-09-21T18:17:11.720Z,11.22
2022-09-21T18:19:30.967Z,11.05
2022-09-21T18:21:41.574Z,10.86
2022-09-21T18:23:54.101Z,10.92
2022-09-21T18:25:57.454Z,10.78
2022-09-21T18:28:12.115Z,10.74
2022-09-21T18:30:16.280Z,10.87
2022-09-21T18:32:53.636Z,11.02
2022-09-21T18:35:12.277Z,11.05
2022-09-21T18:37:23.372Z,10.98
2022-09-21T18:39:37.313Z,11.14
2022-09-21T18:41:45.679Z,11.13
2022-09-21T18:44:05.262Z,11.04
2022-09-21T18:46:14.751Z,10.94
2022-09-21T18:48:36.423Z,10.86
2022-09-21T18:50:44.339Z,10.80
2022-09-21T18:52:58.210Z,10.82
2022-09-21T18:55:02.049Z,11.08
2022-09-21T18:57:12.099Z,11.00
2022-09-21T18:59:15.741Z,10.95
2022-09-21T19:01:21.758Z,10.99
2022-09-21T19:03:25.261Z,10.98
2022-09-21T19:05:28.689Z,10.88
2022-09-21T19:07:40.075Z,11.01
2022-09-21T19:09:52.086Z,10.81
2022-09-21T19:12:03.277Z,10.68
2022-09-21T19:14:13.607Z,10.78
2022-09-21T19:16:25.039Z,10.82
2022-09-21T19:18:49.437Z,10.83
2022-09-21T19:21:02.156Z,10.83
2022-09-21T19:23:16.431Z,10.72
2022-09-21T19:25:31.001Z,10.90
2022-09-21T19:27:39.688Z,10.89
2022-09-21T19:29:50.960Z,10.93
2022-09-21T19:31:54.106Z,10.66
2022-09-21T19:33:56.965Z,10.59
2022-09-21T19:36:00.973Z,10.64
2022-09-21T19:38:04.882Z,10.82
2022-09-21T19:40:08.911Z,10.90
2022-09-21T19:42:29.263Z,10.75
2022-09-21T19:44:43.269Z,10.69
2022-09-21T19:46:52.012Z,10.75
2022-09-21T19:49:02.662Z,10.80
2022-09-21T19:51:05.811Z,10.80
2022-09-21T19:53:28.379Z,10.64
2022-09-21T19:55:49.145Z,10.55
2022-09-21T19:58:12.177Z,10.56
2022-09-21T20:00:17.580Z,10.79
2022-09-21T20:02:28.678Z,10.74
2022-09-21T20:04:36.570Z,10.67
2022-09-21T20:06:46.509Z,10.66
2022-09-21T20:08:56.435Z,10.51
2022-09-21T20:11:08.292Z,10.61
2022-09-21T20:13:24.793Z,10.54
2022-09-21T20:15:33.577Z,10.38
2022-09-21T20:17:43.432Z,10.21
2022-09-21T20:19:53.520Z,10.12
2022-09-21T20:22:04.463Z,10.06
2022-09-21T20:24:18.021Z,10.12
2022-09-21T20:26:25.048Z,10.12
2022-09-21T20:28:29.735Z,10.07
2022-09-21T20:30:35.598Z,9.90
2022-09-21T20:32:40.159Z,10.17
2022-09-21T20:34:42.767Z,10.02
2022-09-21T20:36:45.618Z,9.96
2022-09-21T20:38:48.834Z,10.00
2022-09-21T20:40:52.369Z,9.98
2022-09-21T20:42:55.557Z,9.89
2022-09-21T20:44:59.510Z,9.83
2022-09-21T20:47:02.135Z,9.74
2022-09-21T20:49:08.461Z,9.70
2022-09-21T20:51:11.294Z,9.57
2022-09-21T20:53:14.083Z,9.59
2022-09-21T20:55:20.143Z,9.52
2022-09-21T20:57:22.786Z,9.37
2022-09-21T20:59:27.104Z,9.47
2022-09-21T21:01:31.132Z,9.56
2022-09-21T21:03:34.255Z,9.41
2022-09-21T21:05:37.121Z,9.31
2022-09-21T21:07:42.361Z,9.41
2022-09-21T21:09:45.003Z,9.26
2022-09-21T21:11:47.591Z,9.16
2022-09-21T21:13:50.536Z,9.12
2022-09-21T21:15:53.814Z,9.08
2022-09-21T21:17:57.906Z,8.97
2022-09-21T21:20:00.467Z,9.01
2022-09-21T21:22:03.193Z,8.99
2022-09-21T21:24:24.199Z,8.97
2022-09-21T21:26:50.382Z,8.96
2022-09-21T21:28:52.596Z,8.91
2022-09-21T21:30:56.789Z,8.92
2022-09-21T21:33:01.719Z,8.95
2022-09-21T21:35:05.350Z,8.86
2022-09-21T21:37:09.053Z,8.81
2022-09-21T21:39:11.745Z,8.84
2022-09-21T21:41:14.835Z,8.80
2022-09-21T21:43:17.514Z,8.72
2022-09-21T21:45:21.563Z,8.78
2022-09-21T21:47:41.103Z,8.71
2022-09-21T21:49:45.366Z,8.72
2022-09-21T21:51:49.294Z,8.74
2022-09-21T21:53:52.086Z,8.68
2022-09-21T21:56:03.122Z,8.72
2022-09-21T21:58:05.837Z,8.53
2022-09-21T22:00:09.933Z,8.57
2022-09-21T22:02:12.978Z,8.61
2022-09-21T22:04:15.608Z,8.44
2022-09-21T22:06:19.977Z,8.40
2022-09-21T22:08:22.629Z,8.34
2022-09-21T22:10:25.644Z,8.38
2022-09-21T22:12:28.307Z,8.38
2022-09-21T22:14:31.149Z,8.29
2022-09-21T22:16:35.969Z,8.46
2022-09-21T22:18:39.792Z,8.43
2022-09-21T22:20:42.437Z,8.45
2022-09-21T22:22:46.404Z,8.36
2022-09-21T22:24:49.036Z,8.34
2022-09-21T22:26:51.748Z,8.36
2022-09-21T22:28:56.738Z,8.30
2022-09-21T22:31:00.033Z,8.32
2022-09-21T22:33:03.043Z,8.37
2022-09-21T22:35:06.539Z,8.27
2022-09-21T22:37:09.136Z,8.25
2022-09-21T22:39:13.610Z,8.08
2022-09-21T22:41:18.425Z,8.07
2022-09-21T22:43:21.032Z,8.21
2022-09-21T22:45:26.148Z,8.24
2022-09-21T22:47:28.759Z,8.11
2022-09-21T22:49:31.367Z,7.95
2022-09-21T22:51:34.516Z,8.11
2022-09-21T22:53:37.108Z,8.30
2022-09-21T22:55:41.179Z,8.35
2022-09-21T22:57:43.925Z,8.28
2022-09-21T22:59:46.532Z,8.39
2022-09-21T23:01:49.205Z,8.48
2022-09-21T23:03:53.725Z,8.45
2022-09-21T23:05:57.348Z,8.55
2022-09-21T23:08:00.022Z,8.66
2022-09-21T23:10:02.697Z,8.49
2022-09-21T23:12:07.203Z,8.50
2022-09-21T23:14:11.411Z,8.53
2022-09-21T23:16:15.373Z,8.60
2022-09-21T23:18:18.801Z,8.61
2022-09-21T23:20:21.367Z,8.74
2022-09-21T23:22:24.258Z,8.63
2022-09-21T23:24:27.238Z,8.55
2022-09-21T23:26:31.957Z,8.65
2022-09-21T23:28:37.209Z,8.63
2022-09-21T23:30:39.806Z,8.62
2022-09-21T23:32:42.363Z,8.61
2022-09-21T23:34:45.061Z,8.72
2022-09-21T23:36:47.683Z,8.61
2022-09-21T23:38:50.896Z,8.59
2022-09-21T23:40:53.571Z,8.47
2022-09-21T23:42:56.436Z,8.61
2022-09-21T23:45:00.486Z,8.48
2022-09-21T23:47:03.085Z,8.52
2022-09-21T23:49:05.842Z,8.40
2022-09-21T23:51:08.500Z,8.46
2022-09-21T23:53:11.065Z,8.43
2022-09-21T23:55:13.826Z,8.30
2022-09-21T23:57:16.421Z,8.29
2022-09-21T23:59:19.127Z,8.12
